Latest Coastal Weather Observations for Low Isles

IDQ60701

Issued at 6:05 pm EST Saturday 19 April 2014 (issued every 10 minutes, with the page automatically refreshed every 10 minutes)

About coastal observations | Map of coastal stations | Coastal observations for QLD | Marine services | Other Formats
Station Details ID: 031037 Name: LOW ISLES LIGHTHOUSE Lat: -16.38 Lon: 145.56 Height: 2.9 m
Data from the previous 72 hours. | See also: Recent months at Low Isles
Date/Time
EST
Temp

°C
Wind Pressure Rain
since 9am
mm
Weather Cloud Vis
km
Sea
Height
m
Swell
Dir
 
Speed
knots
Gust
knots
hPa Trend Height
m
Period
s
Dir
19/06:00pm 26.3 SE 16 19 1013.1 - 0.0 - - - - - - -
19/05:30pm 26.5 SE 15 17 1013.0 - 0.0 - - - - - - -
19/05:00pm 27.0 SE 15 18 1012.6 - 0.0 - - - - - - -
19/04:30pm 27.5 SE 13 16 1012.5 - 0.0 - - - - - - -
19/04:00pm 27.9 SE 15 17 1012.3 - 0.0 - - - - - - -
19/03:30pm 28.3 SE 13 17 1012.2 - 0.0 - - - - - - -
19/03:00pm 28.7 SE 13 16 1012.3 - 0.0 Haze Cloudy 10 - - - -
19/02:30pm 28.8 SE 14 18 1012.7 - 0.0 - - - - - - -
19/02:00pm 28.8 ESE 14 17 1013.0 - 0.0 - - - - - - -
19/01:30pm 28.5 SE 13 16 1013.4 - 0.0 - - - - - - -
19/01:00pm 29.8 ESE 13 17 1013.9 - 0.0 - - - - - - -
19/12:30pm 29.2 ESE 13 16 1014.2 - 0.0 - - - - - - -
19/12:00pm 28.7 ESE 13 17 1014.6 - 0.0 - - - - - - -
19/11:30am 29.3 ESE 13 16 1015.0 - 0.0 - - - - - - -
19/11:00am 29.0 ESE 13 16 1015.3 - 0.0 - - - - - - -
19/10:30am 28.9 ESE 12 16 1015.5 - 0.0 - - - - - - -
19/10:00am 28.5 E 13 17 1015.7 - 0.0 - - - - - - -
19/09:30am 27.6 E 14 17 1015.6 - 0.0 - - - - - - -
19/09:00am 27.0 E 12 15 1015.2 - 1.8 Distant precip. Partly cloudy 18 - - - -
19/08:30am 26.4 ESE 12 15 1015.1 - 1.8 - - - - - - -
19/08:00am 26.4 ESE 14 19 1014.8 - 1.8 - - - - - - -
19/07:30am 25.8 E 14 17 1014.4 - 1.8 - - - - - - -
19/07:00am 25.6 E 13 16 1014.2 - 1.8 - - - - - - -
19/06:30am 25.5 ESE 12 15 1014.0 - 1.8 - - - - - - -
19/06:00am 25.2 ESE 9 13 1013.6 - 1.8 - - - - - - -
19/05:30am 25.3 ESE 10 14 1013.5 - 1.6 - - - - - - -
19/05:00am 25.2 ESE 10 13 1013.5 - 1.6 - - - - - - -
19/04:30am 25.6 ESE 12 15 1013.3 - 1.6 - - - - - - -
19/04:00am 25.6 ESE 11 14 1013.4 - 1.6 - - - - - - -
19/03:30am 25.4 ESE 12 17 1013.6 - 1.6 - - - - - - -
19/03:00am 25.7 ESE 11 14 1013.6 - 1.6 - - - - - - -
19/02:30am 25.6 ESE 11 13 1013.7 - 1.6 - - - - - - -
19/02:00am 25.6 E 11 14 1014.0 - 1.6 - - - - - - -
19/01:30am 25.8 ESE 11 13 1014.2 - 1.6 - - - - - - -
19/01:00am 25.8 ESE 11 14 1014.5 - 1.6 - - - - - - -
19/12:30am 25.9 ESE 11 13 1014.8 - 1.6 - - - - - - -
19/12:00am 26.0 ESE 13 15 1015.0 - 1.6 - - - - - - -
 
Date/Time
EST
Temp

°C
Wind Pressure Rain
since 9am
mm
Weather Cloud Vis
km
Sea
Height
m
Swell
Dir
 
Speed
knots
Gust
knots
hPa Trend Height
m
Period
s
Dir
18/11:30pm 26.3 SE 14 17 1015.3 - 1.6 - - - - - - -
18/11:00pm 26.5 SE 14 16 1015.3 - 1.6 - - - - - - -
18/10:30pm 25.9 ESE 13 17 1015.4 - 1.6 - - - - - - -
18/10:00pm 25.9 ESE 13 16 1015.6 - 1.6 - - - - - - -
18/09:30pm 25.2 ESE 13 17 1015.5 - 1.6 - - - - - - -
18/09:00pm 25.0 SE 9 11 1015.4 - 1.6 - - - - - - -
18/08:30pm 24.2 SE 7 9 1015.4 - 1.6 - - - - - - -
18/08:00pm 24.5 E 10 14 1015.0 - 1.6 - - - - - - -
18/07:41pm 25.0 E 17 19 1014.9 - 1.2 - - - - - - -
18/07:33pm 26.4 ESE 20 24 1014.7 - 0.0 - - - - - - -
18/07:30pm 26.8 SSE 14 17 1014.6 - 0.0 - - - - - - -
18/07:00pm 26.7 SSE 13 15 1014.1 - 0.0 - - - - - - -
18/06:30pm 25.9 SSE 12 15 1013.8 - 0.0 - - - - - - -
18/06:00pm 26.7 SE 13 15 1013.4 - 0.0 - - - - - - -
18/05:30pm 26.7 SE 11 14 1013.2 - 0.0 - - - - - - -
18/05:00pm 27.6 ESE 11 15 1013.0 - 0.0 - - - - - - -
18/04:30pm 27.8 SE 13 16 1012.8 - 0.0 - - - - - - -
18/04:00pm 28.8 SE 13 16 1012.7 - 0.0 - - - - - - -
18/03:30pm 29.0 ESE 12 15 1012.6 - 0.0 - - - - - - -
18/03:00pm 29.5 ESE 13 16 1012.4 - 0.0 Haze Mostly cloudy 10 - - - -
18/02:30pm 29.3 ESE 15 18 1012.6 - 0.0 - - - - - - -
18/02:00pm 29.0 ESE 13 16 1012.7 - 0.0 - - - - - - -
18/01:30pm 29.6 ESE 13 17 1012.9 - 0.0 - - - - - - -
18/01:00pm 30.5 E 12 16 1013.2 - 0.0 - - - - - - -
18/12:30pm 29.8 ESE 13 16 1013.5 - 0.0 - - - - - - -
18/12:00pm 28.8 SE 14 17 1013.8 - 0.0 - - - - - - -
18/11:30am 29.7 ESE 14 17 1014.2 - 0.0 - - - - - - -
18/11:00am 29.0 ESE 16 19 1014.5 - 0.0 - - - - - - -
18/10:30am 28.2 SE 16 21 1014.7 - 0.0 - - - - - - -
18/10:00am 27.1 ESE 13 16 1014.9 - 0.0 - - - - - - -
18/09:30am 27.2 ESE 11 13 1014.8 - 0.0 - - - - - - -
18/09:00am 26.0 ESE 11 21 1014.6 - 4.6 Distant precip. Mostly cloudy 6 - - - -
18/08:30am 26.3 ESE 17 19 1014.5 - 4.6 - - - - - - -
18/08:00am 26.7 SSE 15 18 1014.2 - 4.6 - - - - - - -
18/07:30am 26.5 SE 16 20 1013.9 - 4.6 - - - - - - -
18/07:00am 26.1 SE 17 20 1013.6 - 4.6 - - - - - - -
18/06:30am 25.5 SE 16 20 1013.3 - 4.6 - - - - - - -
18/06:00am 25.1 E 14 18 1013.2 - 4.4 - - - - - - -
18/05:30am 26.4 SE 15 18 1012.9 - 3.6 - - - - - - -
18/05:00am 26.4 SE 17 20 1012.5 - 3.6 - - - - - - -
18/04:30am 26.4 SE 16 20 1012.4 - 3.6 - - - - - - -
18/04:00am 26.4 SE 15 20 1012.4 - 3.6 - - - - - - -
18/03:30am 26.5 SE 14 19 1012.3 - 3.6 - - - - - - -
18/03:00am 26.5 SE 15 18 1012.3 - 3.6 - - - - - - -
18/02:30am 26.5 ESE 13 16 1012.7 - 3.6 - - - - - - -
18/02:00am 26.5 ESE 13 16 1013.0 - 3.6 - - - - - - -
18/01:30am 26.6 ESE 14 17 1013.3 - 3.6 - - - - - - -
18/01:00am 26.5 ESE 13 17 1013.6 - 3.6 - - - - - - -
18/12:30am 26.5 ESE 14 18 1014.2 - 3.6 - - - - - - -
18/12:00am 26.3 SE 13 16 1014.5 - 3.6 - - - - - - -
 
Date/Time
EST
Temp

°C
Wind Pressure Rain
since 9am
mm
Weather Cloud Vis
km
Sea
Height
m
Swell
Dir
 
Speed
knots
Gust
knots
hPa Trend Height
m
Period
s
Dir
17/11:30pm 26.1 E 10 13 1015.0 - 3.6 - - - - - - -
17/11:00pm 26.7 SE 15 18 1015.2 - 3.6 - - - - - - -
17/10:30pm 26.4 SSE 17 21 1015.3 - 3.6 - - - - - - -
17/10:00pm 26.6 SE 16 19 1015.3 - 3.6 - - - - - - -
17/09:30pm 27.0 SE 16 20 1015.4 - 3.6 - - - - - - -
17/09:00pm 26.8 SE 17 21 1015.1 - 3.6 - - - - - - -
17/08:30pm 26.7 SE 18 21 1015.1 - 3.6 - - - - - - -
17/08:00pm 26.9 SE 19 22 1014.8 - 3.6 - - - - - - -
17/07:30pm 26.9 SE 18 21 1014.5 - 3.6 - - - - - - -
17/07:00pm 26.7 SE 18 22 1014.1 - 3.6 - - - - - - -
17/06:30pm 27.0 SE 19 24 1013.6 - 3.6 - - - - - - -
17/06:00pm 27.0 SE 18 22 1013.1 - 3.6 - - - - - - -
17/05:30pm 27.1 SE 17 21 1013.0 - 3.6 - - - - - - -
17/05:00pm 27.5 ESE 16 20 1012.5 - 3.6 - - - - - - -
17/04:30pm 27.6 ESE 16 20 1012.3 - 3.6 - - - - - - -
17/04:00pm 27.6 ESE 16 20 1012.1 - 3.6 - - - - - - -
17/03:30pm 27.8 ESE 15 18 1012.0 - 3.6 - - - - - - -
17/03:00pm 27.8 ESE 14 18 1012.1 - 3.6 Haze Cloudy 10 - - - -
17/02:30pm 27.7 SE 13 17 1012.3 - 3.6 - - - - - - -
17/02:00pm 27.9 SE 13 16 1012.5 - 3.6 - - - - - - -
17/01:30pm 28.2 SE 13 15 1013.0 - 3.6 - - - - - - -
17/01:00pm 27.8 SE 12 15 1013.3 - 3.6 - - - - - - -
17/12:30pm 28.1 SE 12 14 1013.6 - 3.6 - - - - - - -
17/12:00pm 27.5 SE 11 15 1013.9 - 3.6 - - - - - - -
17/11:30am 27.1 SSE 11 13 1014.6 - 3.6 - - - - - - -
17/11:00am 26.6 SSE 10 13 1014.9 - 3.6 - - - - - - -
17/10:30am 26.0 S 9 11 1015.3 - 3.6 - - - - - - -
17/10:00am 25.0 S 11 15 1015.3 - 3.4 - - - - - - -
17/09:30am 24.3 SSE 14 18 1015.2 - 3.2 - - - - - - -
17/09:18am 23.3 SSE 18 21 1015.4 - 3.2 - - - - - - -
17/09:10am 23.9 ESE 22 26 1015.2 - 1.4 - - - - - - -
17/09:00am 23.7 E 23 31 1015.1 - 2.0 Showers Cloudy 4 - - - -
17/08:50am 25.6 E 15 25 1015.0 - 1.8 - - - - - - -
17/08:30am 25.7 E 16 20 1014.8 - 1.2 - - - - - - -
17/08:00am 26.2 ESE 10 14 1014.4 - 1.2 - - - - - - -
17/07:30am 26.7 ESE 13 16 1014.2 - 1.2 - - - - - - -
17/07:00am 26.2 E 11 15 1013.9 - 1.2 - - - - - - -
17/06:30am 26.8 ESE 15 19 1013.6 - 1.2 - - - - - - -
17/06:00am 26.7 SE 16 19 1012.9 - 1.2 - - - - - - -
17/05:30am 26.7 SE 16 19 1012.6 - 1.2 - - - - - - -
17/05:00am 26.7 SE 16 19 1012.3 - 1.2 - - - - - - -
17/04:30am 26.6 SE 15 17 1012.0 - 1.2 - - - - - - -
17/04:00am 26.6 SE 14 17 1012.0 - 1.2 - - - - - - -
17/03:30am 26.3 SSE 13 15 1012.1 - 1.2 - - - - - - -
17/03:00am 26.4 SSE 14 16 1012.0 - 1.2 - - - - - - -
17/02:30am 26.5 SSE 17 19 1012.2 - 1.2 - - - - - - -
17/02:00am 26.7 SSE 16 19 1012.3 - 1.2 - - - - - - -
17/01:30am 26.6 SSE 15 17 1012.4 - 1.2 - - - - - - -
17/01:00am 26.6 SSE 17 18 1012.7 - 1.2 - - - - - - -
17/12:30am 26.7 SSE 15 19 1013.1 - 1.2 - - - - - - -
17/12:00am 26.7 SSE 15 16 1013.2 - 1.2 - - - - - - -
 
Date/Time
EST
Temp

°C
Wind Pressure Rain
since 9am
mm
Weather Cloud Vis
km
Sea
Height
m
Swell
Dir
 
Speed
knots
Gust
knots
hPa Trend Height
m
Period
s
Dir
16/11:30pm 26.8 SSE 14 16 1013.4 - 1.2 - - - - - - -
16/11:00pm 26.8 SSE 14 16 1013.5 - 1.2 - - - - - - -
16/10:30pm 26.8 SSE 15 17 1013.6 - 1.2 - - - - - - -
16/10:00pm 26.6 SE 15 18 1013.6 - 1.2 - - - - - - -
16/09:30pm 26.6 SE 16 19 1013.5 - 1.2 - - - - - - -
16/09:00pm 26.8 SE 16 19 1013.3 - 1.2 - - - - - - -
16/08:30pm 27.1 SSE 17 19 1013.2 - 1.2 - - - - - - -
16/08:00pm 26.8 SE 18 20 1013.0 - 1.2 - - - - - - -
16/07:30pm 26.8 SE 17 19 1012.7 - 1.2 - - - - - - -
16/07:00pm 26.9 SE 17 19 1012.3 - 1.2 - - - - - - -
16/06:30pm 27.1 SE 16 19 1011.9 - 1.2 - - - - - - -

Other Formats:

Comma delimited format used in spreadsheet applications
http://www.bom.gov.au/fwo/IDQ60701/IDQ60701.94285.axf

JavaScript Object Notation format (JSON) in row-major order
http://www.bom.gov.au/fwo/IDQ60701/IDQ60701.94285.json